Rechitsa, Belarus
Current Conditions -  °F | °C
As of 10:30 AM on Sunday 26 Oct 2014 (Local Time) from UMGG Reporting Station
Clear Clear  
Wind Chill: 24°   Ceiling: Unl
Heat Index: 32°   Visibility: 6mi
Dew Point: 27°   Wind: 9mph
Humidity: 80%   Direction: 180°S
Pressure: 30.65"   Gusts: NA
Location:  52.37°N, 30.4°E
Report Text: UMGG 260830Z 18004MPS CAVOK 00/M03 Q1038 R10/CLRD// NOSIG
Loading
Personal Weather Stations






























Interactive Weather Map
Tropical Storm Tracking
New forecast layout! Learn more

10-Day Weather Forecast

Advertisements
Track Severe Weather on mobile